CheckWX is a tool to help pilots better visualize weather data.  It is not intended as a substitute for an official pre-flight weather briefing.

22:51:13 UTC

KPHL METAR
Philadelphia International Airport Airport
Philadelphia, Pennsylvania, USA
Current

19 mins ago

KPHL 102232Z 32011KT 3SM RA BR FEW005 OVC013 24/23 A2961 RMK AO2 P0007 T02390228
Observed
Jul-10 @ 22:32 UTC
Wind
  • 320° at 11 KTS
Visibility
3 SM
Flight Rules
MVFR
Conditions
Rain, Mist
Cloud Levels
  • Few at 500' AGL
  • Overcast at 1,300' AGL
Temperature
24°C / 75°F
Dewpoint
23°C / 73°F
Humidity
94%
Altimeter
29.61" Hg
Pressure
1002.72 hPa
Current Rain
0.07"
Previous

57 mins ago

KPHL 102154Z 33012KT 1 1/2SM -RA BR FEW005 BKN010 OVC015 24/23 A2961 RMK AO2 SLP025 P0014 T02390228
Observed
Jul-10 @ 21:54 UTC
Wind
  • 330° at 12 KTS
Visibility
1 1/2 SM
Flight Rules
IFR
Conditions
Light Rain, Mist
Cloud Levels
  • Few at 500' AGL
  • Broken at 1,000' AGL
  • Overcast at 1,500' AGL
Temperature
24°C / 75°F
Dewpoint
23°C / 73°F
Humidity
94%
Altimeter
29.61" Hg
Pressure
1002.72 hPa
Current Rain
0.14"
Previous

2 hours ago

KPHL 102054Z 33011KT 1 1/2SM +RA BR FEW005 BKN010 OVC015 23/22 A2963 RMK AO2 WSHFT 1945 SLP032 P0073 60120 T02330222 56024
Observed
Jul-10 @ 20:54 UTC
Wind
  • 330° at 11 KTS
Visibility
1 1/2 SM
Flight Rules
IFR
Conditions
Heavy Rain, Mist
Cloud Levels
  • Few at 500' AGL
  • Broken at 1,000' AGL
  • Overcast at 1,500' AGL
Temperature
23°C / 73°F
Dewpoint
22°C / 72°F
Humidity
94%
Altimeter
29.63" Hg
Pressure
1003.42 hPa
Current Rain
0.73"